sensor_id;sensor_type;location;lat;lon;timestamp;P1;durP1;ratioP1;P2;durP2;ratioP2
59207;SDS011;44977;53.132;6.408;2022-10-22T00:03:26;12.25;;;8.93;;
59207;SDS011;44977;53.132;6.408;2022-10-22T00:08:27;13.25;;;8.48;;
59207;SDS011;44977;53.132;6.408;2022-10-22T00:13:28;12.82;;;9.10;;
59207;SDS011;44977;53.132;6.408;2022-10-22T00:18:29;11.77;;;8.82;;
59207;SDS011;44977;53.132;6.408;2022-10-22T00:23:29;13.25;;;9.02;;
59207;SDS011;44977;53.132;6.408;2022-10-22T00:28:30;12.85;;;8.88;;
59207;SDS011;44977;53.132;6.408;2022-10-22T00:33:31;12.82;;;8.60;;
59207;SDS011;44977;53.132;6.408;2022-10-22T00:38:32;12.60;;;9.30;;
59207;SDS011;44977;53.132;6.408;2022-10-22T00:43:33;12.40;;;9.52;;
59207;SDS011;44977;53.132;6.408;2022-10-22T00:48:52;13.75;;;8.93;;
59207;SDS011;44977;53.132;6.408;2022-10-22T00:53:56;11.60;;;8.80;;
59207;SDS011;44977;53.132;6.408;2022-10-22T00:59:00;12.32;;;8.82;;
59207;SDS011;44977;53.132;6.408;2022-10-22T01:04:04;11.50;;;8.43;;
59207;SDS011;44977;53.132;6.408;2022-10-22T01:09:08;12.18;;;8.98;;
59207;SDS011;44977;53.132;6.408;2022-10-22T01:24:52;13.27;;;8.60;;
59207;SDS011;44977;53.132;6.408;2022-10-22T01:30:01;11.25;;;8.30;;
59207;SDS011;44977;53.132;6.408;2022-10-22T01:35:07;12.23;;;8.45;;
59207;SDS011;44977;53.132;6.408;2022-10-22T01:40:11;14.73;;;8.80;;
59207;SDS011;44977;53.132;6.408;2022-10-22T01:45:15;12.68;;;8.90;;
59207;SDS011;44977;53.132;6.408;2022-10-22T01:50:22;13.23;;;9.63;;
59207;SDS011;44977;53.132;6.408;2022-10-22T01:55:51;13.55;;;9.07;;
59207;SDS011;44977;53.132;6.408;2022-10-22T02:01:02;13.02;;;8.77;;
59207;SDS011;44977;53.132;6.408;2022-10-22T02:06:20;16.10;;;10.00;;
59207;SDS011;44977;53.132;6.408;2022-10-22T02:11:23;13.77;;;10.02;;
59207;SDS011;44977;53.132;6.408;2022-10-22T02:16:27;12.05;;;9.15;;
59207;SDS011;44977;53.132;6.408;2022-10-22T02:21:33;15.57;;;9.98;;
59207;SDS011;44977;53.132;6.408;2022-10-22T02:26:36;12.90;;;9.52;;
59207;SDS011;44977;53.132;6.408;2022-10-22T02:31:42;13.52;;;9.35;;
59207;SDS011;44977;53.132;6.408;2022-10-22T02:36:44;15.13;;;9.75;;
59207;SDS011;44977;53.132;6.408;2022-10-22T02:41:47;14.20;;;9.48;;
59207;SDS011;44977;53.132;6.408;2022-10-22T02:46:48;15.20;;;10.25;;
59207;SDS011;44977;53.132;6.408;2022-10-22T02:51:49;16.23;;;10.80;;
59207;SDS011;44977;53.132;6.408;2022-10-22T02:56:50;15.98;;;10.63;;
59207;SDS011;44977;53.132;6.408;2022-10-22T03:01:50;13.98;;;10.00;;
59207;SDS011;44977;53.132;6.408;2022-10-22T03:06:51;12.63;;;10.00;;
59207;SDS011;44977;53.132;6.408;2022-10-22T03:11:52;14.27;;;10.05;;
59207;SDS011;44977;53.132;6.408;2022-10-22T03:16:52;15.15;;;10.20;;
59207;SDS011;44977;53.132;6.408;2022-10-22T03:21:54;16.40;;;10.38;;
59207;SDS011;44977;53.132;6.408;2022-10-22T03:26:59;12.30;;;9.48;;
59207;SDS011;44977;53.132;6.408;2022-10-22T03:32:00;15.90;;;11.02;;
59207;SDS011;44977;53.132;6.408;2022-10-22T03:37:00;16.48;;;10.30;;
59207;SDS011;44977;53.132;6.408;2022-10-22T03:42:02;14.15;;;9.90;;
59207;SDS011;44977;53.132;6.408;2022-10-22T03:47:04;13.02;;;10.13;;
59207;SDS011;44977;53.132;6.408;2022-10-22T03:52:09;14.85;;;10.43;;
59207;SDS011;44977;53.132;6.408;2022-10-22T03:57:11;12.73;;;9.43;;
59207;SDS011;44977;53.132;6.408;2022-10-22T04:02:12;15.93;;;9.82;;
59207;SDS011;44977;53.132;6.408;2022-10-22T04:07:13;15.05;;;10.40;;
59207;SDS011;44977;53.132;6.408;2022-10-22T04:12:14;16.83;;;10.90;;
59207;SDS011;44977;53.132;6.408;2022-10-22T04:17:15;14.90;;;10.13;;
59207;SDS011;44977;53.132;6.408;2022-10-22T04:22:16;14.50;;;10.38;;
59207;SDS011;44977;53.132;6.408;2022-10-22T04:27:16;15.55;;;11.20;;
59207;SDS011;44977;53.132;6.408;2022-10-22T04:32:17;16.58;;;10.77;;
59207;SDS011;44977;53.132;6.408;2022-10-22T04:37:18;18.40;;;11.90;;
59207;SDS011;44977;53.132;6.408;2022-10-22T04:42:18;14.30;;;10.35;;
59207;SDS011;44977;53.132;6.408;2022-10-22T04:47:19;14.95;;;11.02;;
59207;SDS011;44977;53.132;6.408;2022-10-22T04:52:20;15.30;;;10.80;;
59207;SDS011;44977;53.132;6.408;2022-10-22T04:57:20;17.58;;;11.23;;
59207;SDS011;44977;53.132;6.408;2022-10-22T05:02:21;16.02;;;11.88;;
59207;SDS011;44977;53.132;6.408;2022-10-22T05:07:22;16.73;;;11.80;;
59207;SDS011;44977;53.132;6.408;2022-10-22T05:12:22;16.13;;;11.00;;
59207;SDS011;44977;53.132;6.408;2022-10-22T05:17:26;15.10;;;10.10;;
59207;SDS011;44977;53.132;6.408;2022-10-22T05:22:27;16.33;;;11.45;;
59207;SDS011;44977;53.132;6.408;2022-10-22T05:27:27;13.65;;;10.63;;
59207;SDS011;44977;53.132;6.408;2022-10-22T05:32:28;16.50;;;12.15;;
59207;SDS011;44977;53.132;6.408;2022-10-22T05:37:29;14.38;;;10.95;;
59207;SDS011;44977;53.132;6.408;2022-10-22T05:42:32;14.73;;;11.23;;
59207;SDS011;44977;53.132;6.408;2022-10-22T05:47:33;16.30;;;10.95;;
59207;SDS011;44977;53.132;6.408;2022-10-22T05:52:34;15.52;;;11.13;;
59207;SDS011;44977;53.132;6.408;2022-10-22T05:57:34;17.48;;;11.80;;
59207;SDS011;44977;53.132;6.408;2022-10-22T06:02:35;16.10;;;11.77;;
59207;SDS011;44977;53.132;6.408;2022-10-22T06:07:35;15.43;;;11.40;;
59207;SDS011;44977;53.132;6.408;2022-10-22T06:12:36;14.95;;;12.00;;
59207;SDS011;44977;53.132;6.408;2022-10-22T06:17:37;17.15;;;11.57;;
59207;SDS011;44977;53.132;6.408;2022-10-22T06:22:38;16.00;;;11.82;;
59207;SDS011;44977;53.132;6.408;2022-10-22T06:27:39;15.55;;;11.02;;
59207;SDS011;44977;53.132;6.408;2022-10-22T06:32:39;18.50;;;11.77;;
59207;SDS011;44977;53.132;6.408;2022-10-22T06:37:40;15.48;;;11.80;;
59207;SDS011;44977;53.132;6.408;2022-10-22T06:42:41;15.95;;;11.40;;
59207;SDS011;44977;53.132;6.408;2022-10-22T06:47:41;15.75;;;11.57;;
59207;SDS011;44977;53.132;6.408;2022-10-22T06:52:42;16.75;;;11.15;;
59207;SDS011;44977;53.132;6.408;2022-10-22T06:57:43;16.30;;;11.82;;
59207;SDS011;44977;53.132;6.408;2022-10-22T07:02:43;16.92;;;11.05;;
59207;SDS011;44977;53.132;6.408;2022-10-22T07:07:51;16.10;;;10.88;;
59207;SDS011;44977;53.132;6.408;2022-10-22T07:12:52;17.63;;;10.73;;
59207;SDS011;44977;53.132;6.408;2022-10-22T07:17:53;17.70;;;10.60;;
59207;SDS011;44977;53.132;6.408;2022-10-22T07:22:53;16.08;;;10.32;;
59207;SDS011;44977;53.132;6.408;2022-10-22T07:27:54;18.38;;;10.80;;
59207;SDS011;44977;53.132;6.408;2022-10-22T07:32:55;15.13;;;9.73;;
59207;SDS011;44977;53.132;6.408;2022-10-22T07:37:55;17.70;;;9.70;;
59207;SDS011;44977;53.132;6.408;2022-10-22T07:42:56;16.73;;;9.50;;
59207;SDS011;44977;53.132;6.408;2022-10-22T07:47:57;15.65;;;9.30;;
59207;SDS011;44977;53.132;6.408;2022-10-22T07:52:59;13.93;;;9.13;;
59207;SDS011;44977;53.132;6.408;2022-10-22T07:58:00;14.15;;;8.32;;
59207;SDS011;44977;53.132;6.408;2022-10-22T08:03:01;14.85;;;8.98;;
59207;SDS011;44977;53.132;6.408;2022-10-22T08:08:02;16.05;;;8.80;;
59207;SDS011;44977;53.132;6.408;2022-10-22T08:13:02;14.95;;;7.95;;
59207;SDS011;44977;53.132;6.408;2022-10-22T08:18:03;16.75;;;8.85;;
59207;SDS011;44977;53.132;6.408;2022-10-22T08:23:04;17.50;;;8.07;;
59207;SDS011;44977;53.132;6.408;2022-10-22T08:28:05;14.95;;;7.50;;
59207;SDS011;44977;53.132;6.408;2022-10-22T08:33:05;15.98;;;7.88;;
59207;SDS011;44977;53.132;6.408;2022-10-22T08:38:06;15.10;;;6.85;;
59207;SDS011;44977;53.132;6.408;2022-10-22T08:48:59;15.95;;;6.07;;
59207;SDS011;44977;53.132;6.408;2022-10-22T08:54:18;14.05;;;6.13;;
59207;SDS011;44977;53.132;6.408;2022-10-22T08:59:27;14.40;;;6.30;;
59207;SDS011;44977;53.132;6.408;2022-10-22T09:04:44;14.25;;;5.90;;
59207;SDS011;44977;53.132;6.408;2022-10-22T09:09:49;13.55;;;5.45;;
59207;SDS011;44977;53.132;6.408;2022-10-22T09:14:54;13.45;;;5.88;;
59207;SDS011;44977;53.132;6.408;2022-10-22T09:25:25;12.20;;;5.20;;
59207;SDS011;44977;53.132;6.408;2022-10-22T09:30:28;14.02;;;5.90;;
59207;SDS011;44977;53.132;6.408;2022-10-22T09:35:34;14.82;;;5.68;;
59207;SDS011;44977;53.132;6.408;2022-10-22T09:40:47;11.93;;;5.47;;
59207;SDS011;44977;53.132;6.408;2022-10-22T09:45:56;13.23;;;5.28;;
59207;SDS011;44977;53.132;6.408;2022-10-22T09:56:22;15.20;;;5.30;;
59207;SDS011;44977;53.132;6.408;2022-10-22T10:01:46;12.50;;;5.18;;
59207;SDS011;44977;53.132;6.408;2022-10-22T10:06:55;14.45;;;5.28;;
59207;SDS011;44977;53.132;6.408;2022-10-22T10:17:38;12.00;;;5.63;;
59207;SDS011;44977;53.132;6.408;2022-10-22T10:22:50;15.43;;;6.10;;
59207;SDS011;44977;53.132;6.408;2022-10-22T10:28:14;14.98;;;6.97;;
59207;SDS011;44977;53.132;6.408;2022-10-22T10:33:32;13.20;;;6.03;;
59207;SDS011;44977;53.132;6.408;2022-10-22T10:38:47;13.88;;;6.20;;
59207;SDS011;44977;53.132;6.408;2022-10-22T10:49:42;12.00;;;6.13;;
59207;SDS011;44977;53.132;6.408;2022-10-22T11:00:15;14.90;;;6.57;;
59207;SDS011;44977;53.132;6.408;2022-10-22T11:31:53;13.88;;;7.13;;
59207;SDS011;44977;53.132;6.408;2022-10-22T11:36:55;13.88;;;8.13;;
59207;SDS011;44977;53.132;6.408;2022-10-22T11:41:58;15.18;;;8.18;;
59207;SDS011;44977;53.132;6.408;2022-10-22T11:47:08;14.43;;;8.75;;
59207;SDS011;44977;53.132;6.408;2022-10-22T11:57:35;13.30;;;8.02;;
59207;SDS011;44977;53.132;6.408;2022-10-22T12:02:43;14.27;;;8.52;;
59207;SDS011;44977;53.132;6.408;2022-10-22T12:12:54;14.05;;;7.32;;
59207;SDS011;44977;53.132;6.408;2022-10-22T12:18:00;12.15;;;7.57;;
59207;SDS011;44977;53.132;6.408;2022-10-22T12:23:04;13.57;;;7.10;;
59207;SDS011;44977;53.132;6.408;2022-10-22T12:28:11;13.95;;;7.03;;
59207;SDS011;44977;53.132;6.408;2022-10-22T12:33:22;12.23;;;6.88;;
59207;SDS011;44977;53.132;6.408;2022-10-22T12:38:23;12.35;;;6.68;;
59207;SDS011;44977;53.132;6.408;2022-10-22T12:43:25;13.82;;;7.30;;
59207;SDS011;44977;53.132;6.408;2022-10-22T12:48:31;14.70;;;7.10;;
59207;SDS011;44977;53.132;6.408;2022-10-22T12:53:37;14.27;;;6.68;;
59207;SDS011;44977;53.132;6.408;2022-10-22T12:58:43;13.65;;;5.80;;
59207;SDS011;44977;53.132;6.408;2022-10-22T13:03:47;12.32;;;4.80;;
59207;SDS011;44977;53.132;6.408;2022-10-22T13:14:03;11.23;;;4.15;;
59207;SDS011;44977;53.132;6.408;2022-10-22T13:19:31;11.65;;;3.53;;
59207;SDS011;44977;53.132;6.408;2022-10-22T13:29:53;9.95;;;3.08;;
59207;SDS011;44977;53.132;6.408;2022-10-22T13:34:56;10.23;;;3.35;;
59207;SDS011;44977;53.132;6.408;2022-10-22T13:39:58;10.20;;;3.10;;
59207;SDS011;44977;53.132;6.408;2022-10-22T13:44:59;14.38;;;3.67;;
59207;SDS011;44977;53.132;6.408;2022-10-22T13:50:03;12.63;;;3.40;;
59207;SDS011;44977;53.132;6.408;2022-10-22T14:00:26;9.48;;;2.55;;
59207;SDS011;44977;53.132;6.408;2022-10-22T14:05:27;8.70;;;2.20;;
59207;SDS011;44977;53.132;6.408;2022-10-22T14:10:29;9.63;;;2.20;;
59207;SDS011;44977;53.132;6.408;2022-10-22T14:15:30;6.68;;;1.38;;
59207;SDS011;44977;53.132;6.408;2022-10-22T14:20:31;9.07;;;1.70;;
59207;SDS011;44977;53.132;6.408;2022-10-22T14:25:35;7.63;;;1.50;;
59207;SDS011;44977;53.132;6.408;2022-10-22T14:30:36;8.60;;;1.85;;
59207;SDS011;44977;53.132;6.408;2022-10-22T14:35:37;8.45;;;1.80;;
59207;SDS011;44977;53.132;6.408;2022-10-22T14:40:38;8.15;;;1.63;;
59207;SDS011;44977;53.132;6.408;2022-10-22T14:45:41;10.00;;;1.83;;
59207;SDS011;44977;53.132;6.408;2022-10-22T14:50:43;11.43;;;1.77;;
59207;SDS011;44977;53.132;6.408;2022-10-22T14:55:44;8.45;;;1.70;;
59207;SDS011;44977;53.132;6.408;2022-10-22T15:00:46;12.85;;;2.38;;
59207;SDS011;44977;53.132;6.408;2022-10-22T15:05:49;10.20;;;2.25;;
59207;SDS011;44977;53.132;6.408;2022-10-22T15:11:02;9.65;;;2.20;;
59207;SDS011;44977;53.132;6.408;2022-10-22T15:16:08;11.25;;;2.45;;
59207;SDS011;44977;53.132;6.408;2022-10-22T15:21:14;12.60;;;2.78;;
59207;SDS011;44977;53.132;6.408;2022-10-22T15:26:16;11.50;;;2.73;;
59207;SDS011;44977;53.132;6.408;2022-10-22T15:31:17;11.88;;;2.47;;
59207;SDS011;44977;53.132;6.408;2022-10-22T15:36:48;10.68;;;2.50;;
59207;SDS011;44977;53.132;6.408;2022-10-22T15:41:49;12.77;;;2.85;;
59207;SDS011;44977;53.132;6.408;2022-10-22T15:46:50;10.63;;;2.40;;
59207;SDS011;44977;53.132;6.408;2022-10-22T15:51:53;12.75;;;2.95;;
59207;SDS011;44977;53.132;6.408;2022-10-22T15:56:55;13.32;;;2.60;;
59207;SDS011;44977;53.132;6.408;2022-10-22T16:01:56;14.52;;;3.00;;
59207;SDS011;44977;53.132;6.408;2022-10-22T16:06:57;17.27;;;3.33;;
59207;SDS011;44977;53.132;6.408;2022-10-22T16:11:58;13.38;;;2.80;;
59207;SDS011;44977;53.132;6.408;2022-10-22T16:16:59;16.58;;;4.28;;
59207;SDS011;44977;53.132;6.408;2022-10-22T16:22:00;14.85;;;3.17;;
59207;SDS011;44977;53.132;6.408;2022-10-22T16:27:02;13.43;;;3.83;;
59207;SDS011;44977;53.132;6.408;2022-10-22T16:32:03;16.88;;;5.35;;
59207;SDS011;44977;53.132;6.408;2022-10-22T16:37:04;18.00;;;6.82;;
59207;SDS011;44977;53.132;6.408;2022-10-22T16:42:08;25.20;;;6.78;;
59207;SDS011;44977;53.132;6.408;2022-10-22T16:47:09;16.63;;;5.30;;
59207;SDS011;44977;53.132;6.408;2022-10-22T16:52:10;15.32;;;5.13;;
59207;SDS011;44977;53.132;6.408;2022-10-22T16:57:10;15.60;;;3.92;;
59207;SDS011;44977;53.132;6.408;2022-10-22T17:02:12;14.95;;;3.80;;
59207;SDS011;44977;53.132;6.408;2022-10-22T17:07:13;16.13;;;4.10;;
59207;SDS011;44977;53.132;6.408;2022-10-22T17:12:13;18.27;;;5.28;;
59207;SDS011;44977;53.132;6.408;2022-10-22T17:17:14;25.85;;;16.73;;
59207;SDS011;44977;53.132;6.408;2022-10-22T17:22:15;20.08;;;12.23;;
59207;SDS011;44977;53.132;6.408;2022-10-22T17:27:15;16.25;;;5.78;;
59207;SDS011;44977;53.132;6.408;2022-10-22T17:32:16;15.88;;;4.43;;
59207;SDS011;44977;53.132;6.408;2022-10-22T17:37:17;17.08;;;4.78;;
59207;SDS011;44977;53.132;6.408;2022-10-22T17:42:17;18.00;;;5.30;;
59207;SDS011;44977;53.132;6.408;2022-10-22T17:47:18;18.65;;;5.82;;
59207;SDS011;44977;53.132;6.408;2022-10-22T17:52:19;15.27;;;5.00;;
59207;SDS011;44977;53.132;6.408;2022-10-22T17:57:20;19.90;;;6.57;;
59207;SDS011;44977;53.132;6.408;2022-10-22T18:02:20;17.88;;;6.78;;
59207;SDS011;44977;53.132;6.408;2022-10-22T18:07:21;17.95;;;6.55;;
59207;SDS011;44977;53.132;6.408;2022-10-22T18:12:22;23.42;;;6.75;;
59207;SDS011;44977;53.132;6.408;2022-10-22T18:17:22;18.65;;;6.00;;
59207;SDS011;44977;53.132;6.408;2022-10-22T18:22:23;15.68;;;6.63;;
59207;SDS011;44977;53.132;6.408;2022-10-22T18:27:24;15.77;;;6.43;;
59207;SDS011;44977;53.132;6.408;2022-10-22T18:32:24;18.65;;;6.93;;
59207;SDS011;44977;53.132;6.408;2022-10-22T18:37:25;17.88;;;6.88;;
59207;SDS011;44977;53.132;6.408;2022-10-22T18:42:26;15.25;;;6.43;;
59207;SDS011;44977;53.132;6.408;2022-10-22T18:47:26;17.90;;;6.25;;
59207;SDS011;44977;53.132;6.408;2022-10-22T18:52:27;16.92;;;6.05;;
59207;SDS011;44977;53.132;6.408;2022-10-22T18:57:28;18.00;;;6.65;;
59207;SDS011;44977;53.132;6.408;2022-10-22T19:02:29;18.10;;;7.07;;
59207;SDS011;44977;53.132;6.408;2022-10-22T19:07:29;18.00;;;6.55;;
59207;SDS011;44977;53.132;6.408;2022-10-22T19:12:30;17.73;;;6.72;;
59207;SDS011;44977;53.132;6.408;2022-10-22T19:17:31;21.02;;;7.22;;
59207;SDS011;44977;53.132;6.408;2022-10-22T19:22:32;19.17;;;7.10;;
59207;SDS011;44977;53.132;6.408;2022-10-22T19:27:33;17.30;;;6.38;;
59207;SDS011;44977;53.132;6.408;2022-10-22T19:32:35;15.68;;;5.40;;
59207;SDS011;44977;53.132;6.408;2022-10-22T19:37:36;19.08;;;6.80;;
59207;SDS011;44977;53.132;6.408;2022-10-22T19:42:36;18.98;;;7.40;;
59207;SDS011;44977;53.132;6.408;2022-10-22T19:47:37;20.35;;;9.60;;
59207;SDS011;44977;53.132;6.408;2022-10-22T19:52:38;16.38;;;7.75;;
59207;SDS011;44977;53.132;6.408;2022-10-22T19:57:38;19.35;;;6.72;;
59207;SDS011;44977;53.132;6.408;2022-10-22T20:02:39;16.42;;;5.97;;
59207;SDS011;44977;53.132;6.408;2022-10-22T20:07:40;17.70;;;6.25;;
59207;SDS011;44977;53.132;6.408;2022-10-22T20:12:40;16.70;;;5.70;;
59207;SDS011;44977;53.132;6.408;2022-10-22T20:17:41;16.73;;;6.40;;
59207;SDS011;44977;53.132;6.408;2022-10-22T20:22:42;18.33;;;6.68;;
59207;SDS011;44977;53.132;6.408;2022-10-22T20:27:42;16.85;;;6.93;;
59207;SDS011;44977;53.132;6.408;2022-10-22T20:32:43;17.60;;;6.55;;
59207;SDS011;44977;53.132;6.408;2022-10-22T20:37:44;17.30;;;6.45;;
59207;SDS011;44977;53.132;6.408;2022-10-22T20:42:45;15.95;;;6.65;;
59207;SDS011;44977;53.132;6.408;2022-10-22T20:47:48;15.18;;;7.22;;
59207;SDS011;44977;53.132;6.408;2022-10-22T20:52:49;20.73;;;9.63;;
59207;SDS011;44977;53.132;6.408;2022-10-22T20:57:49;17.15;;;7.65;;
59207;SDS011;44977;53.132;6.408;2022-10-22T21:02:50;16.20;;;7.50;;
59207;SDS011;44977;53.132;6.408;2022-10-22T21:07:51;16.00;;;7.40;;
59207;SDS011;44977;53.132;6.408;2022-10-22T21:12:51;18.15;;;7.07;;
59207;SDS011;44977;53.132;6.408;2022-10-22T21:17:52;14.82;;;6.47;;
59207;SDS011;44977;53.132;6.408;2022-10-22T21:22:53;12.68;;;5.65;;
59207;SDS011;44977;53.132;6.408;2022-10-22T21:27:54;16.40;;;6.72;;
59207;SDS011;44977;53.132;6.408;2022-10-22T21:32:54;16.83;;;6.10;;
59207;SDS011;44977;53.132;6.408;2022-10-22T21:37:57;16.48;;;6.47;;
59207;SDS011;44977;53.132;6.408;2022-10-22T21:42:57;18.67;;;7.80;;
59207;SDS011;44977;53.132;6.408;2022-10-22T21:47:58;19.02;;;7.68;;
59207;SDS011;44977;53.132;6.408;2022-10-22T21:52:58;17.45;;;7.80;;
59207;SDS011;44977;53.132;6.408;2022-10-22T21:57:59;16.08;;;7.13;;
59207;SDS011;44977;53.132;6.408;2022-10-22T22:03:00;16.25;;;7.60;;
59207;SDS011;44977;53.132;6.408;2022-10-22T22:08:01;16.92;;;8.18;;
59207;SDS011;44977;53.132;6.408;2022-10-22T22:13:01;12.10;;;7.43;;
59207;SDS011;44977;53.132;6.408;2022-10-22T22:18:02;14.88;;;7.90;;
59207;SDS011;44977;53.132;6.408;2022-10-22T22:23:03;17.27;;;8.27;;
59207;SDS011;44977;53.132;6.408;2022-10-22T22:28:03;16.65;;;8.32;;
59207;SDS011;44977;53.132;6.408;2022-10-22T22:33:04;16.60;;;8.80;;
59207;SDS011;44977;53.132;6.408;2022-10-22T22:38:05;17.15;;;8.48;;
59207;SDS011;44977;53.132;6.408;2022-10-22T22:43:09;17.50;;;9.00;;
59207;SDS011;44977;53.132;6.408;2022-10-22T22:48:10;18.60;;;9.10;;
59207;SDS011;44977;53.132;6.408;2022-10-22T22:53:10;18.10;;;8.25;;
59207;SDS011;44977;53.132;6.408;2022-10-22T22:58:11;17.92;;;8.57;;
59207;SDS011;44977;53.132;6.408;2022-10-22T23:03:12;18.00;;;8.57;;
59207;SDS011;44977;53.132;6.408;2022-10-22T23:08:12;16.17;;;7.93;;
59207;SDS011;44977;53.132;6.408;2022-10-22T23:13:13;20.65;;;8.40;;
59207;SDS011;44977;53.132;6.408;2022-10-22T23:18:14;14.48;;;8.13;;
59207;SDS011;44977;53.132;6.408;2022-10-22T23:23:14;18.48;;;8.43;;
59207;SDS011;44977;53.132;6.408;2022-10-22T23:28:15;18.95;;;8.68;;
59207;SDS011;44977;53.132;6.408;2022-10-22T23:33:16;14.43;;;8.27;;
59207;SDS011;44977;53.132;6.408;2022-10-22T23:38:18;16.05;;;9.18;;
59207;SDS011;44977;53.132;6.408;2022-10-22T23:43:18;18.45;;;9.93;;
59207;SDS011;44977;53.132;6.408;2022-10-22T23:48:19;16.38;;;9.57;;
59207;SDS011;44977;53.132;6.408;2022-10-22T23:53:20;16.27;;;9.00;;
59207;SDS011;44977;53.132;6.408;2022-10-22T23:58:21;16.15;;;9.60;;
